createdAt,value
2018-11-20T00:02:25.659Z,20.53
2018-11-20T00:05:04.696Z,20.13
2018-11-20T00:07:52.104Z,21.23
2018-11-20T00:10:39.337Z,22.90
2018-11-20T00:13:21.618Z,23.63
2018-11-20T00:16:10.337Z,24.50
2018-11-20T00:19:01.688Z,40.50
2018-11-20T00:21:52.997Z,30.77
2018-11-20T00:24:40.605Z,31.57
2018-11-20T00:27:27.835Z,33.33
2018-11-20T00:30:15.320Z,25.63
2018-11-20T00:32:55.962Z,30.83
2018-11-20T00:35:43.271Z,23.67
2018-11-20T00:38:40.737Z,23.40
2018-11-20T00:41:28.048Z,24.30
2018-11-20T00:44:22.917Z,23.80
2018-11-20T00:47:10.078Z,20.47
2018-11-20T00:50:01.456Z,18.63
2018-11-20T00:52:48.444Z,18.10
2018-11-20T00:56:18.046Z,26.27
2018-11-20T00:58:59.233Z,17.27
2018-11-20T01:01:46.534Z,24.40
2018-11-20T01:04:39.742Z,18.57
2018-11-20T01:07:46.760Z,20.67
2018-11-20T01:10:44.427Z,21.87
2018-11-20T01:13:35.644Z,20.50
2018-11-20T01:16:23.057Z,24.70
2018-11-20T01:19:10.202Z,29.30
2018-11-20T01:22:17.014Z,21.57
2018-11-20T01:25:05.674Z,20.60
2018-11-20T01:28:03.330Z,18.83
2018-11-20T01:30:50.471Z,20.10
2018-11-20T01:33:37.794Z,27.50
2018-11-20T01:36:19.930Z,33.90
2018-11-20T01:39:23.888Z,30.73
2018-11-20T01:42:04.268Z,24.67
2018-11-20T01:44:51.372Z,23.77
2018-11-20T01:47:43.276Z,18.57
2018-11-20T01:50:40.802Z,15.83
2018-11-20T01:53:32.580Z,18.90
2018-11-20T01:56:21.095Z,18.30
2018-11-20T01:59:01.148Z,20.10
2018-11-20T02:01:49.999Z,16.70
2018-11-20T02:04:37.289Z,18.57
2018-11-20T02:07:30.981Z,17.13
2018-11-20T02:10:18.047Z,18.00
2018-11-20T02:13:40.926Z,18.07
2018-11-20T02:16:28.128Z,18.37
2018-11-20T02:19:16.884Z,19.83
2018-11-20T02:22:02.974Z,18.97
2018-11-20T02:24:57.528Z,19.43
2018-11-20T02:28:04.187Z,18.50
2018-11-20T02:31:04.765Z,22.70
2018-11-20T02:33:53.248Z,26.27
2018-11-20T02:36:43.965Z,17.70
2018-11-20T02:39:31.252Z,21.50
2018-11-20T02:42:35.112Z,19.20
2018-11-20T02:45:29.771Z,17.70
2018-11-20T02:48:36.492Z,17.87
2018-11-20T02:51:43.225Z,18.20
2018-11-20T02:54:30.403Z,22.33
2018-11-20T02:57:11.980Z,18.80
2018-11-20T03:00:03.459Z,19.43
2018-11-20T03:03:03.942Z,18.67
2018-11-20T03:05:44.307Z,23.67
2018-11-20T03:08:35.755Z,22.70
2018-11-20T03:11:33.264Z,20.47
2018-11-20T03:14:20.414Z,20.00
2018-11-20T03:17:09.054Z,20.47
2018-11-20T03:19:56.690Z,21.63
2018-11-20T03:22:44.134Z,22.70
2018-11-20T03:26:09.742Z,22.07
2018-11-20T03:29:31.879Z,22.57
2018-11-20T03:32:35.537Z,20.20
2018-11-20T03:35:22.651Z,22.70
2018-11-20T03:38:09.905Z,22.87
2018-11-20T03:41:01.235Z,20.30
2018-11-20T03:43:48.169Z,21.27
2018-11-20T03:46:48.826Z,21.80
2018-11-20T03:49:55.610Z,20.50
2018-11-20T03:52:59.129Z,21.63
2018-11-20T03:55:44.759Z,21.53
2018-11-20T03:58:36.013Z,26.33
2018-11-20T04:01:27.543Z,26.50
2018-11-20T04:04:08.404Z,31.37
2018-11-20T04:07:08.788Z,32.53
2018-11-20T04:09:49.097Z,31.20
2018-11-20T04:12:52.910Z,27.67
2018-11-20T04:15:59.581Z,24.77
2018-11-20T04:18:59.906Z,22.33
2018-11-20T04:21:47.127Z,20.33
2018-11-20T04:24:34.670Z,19.23
2018-11-20T04:27:21.987Z,27.00
2018-11-20T04:30:37.453Z,31.80
2018-11-20T04:34:02.937Z,31.83
2018-11-20T04:37:03.951Z,28.03
2018-11-20T04:39:51.215Z,30.07
2018-11-20T04:42:38.349Z,29.37
2018-11-20T04:45:25.975Z,26.03
2018-11-20T04:48:23.507Z,29.63
2018-11-20T04:51:08.432Z,31.37
2018-11-20T04:54:05.042Z,36.57
2018-11-20T04:57:02.697Z,32.13
2018-11-20T05:00:06.340Z,29.63
2018-11-20T05:02:44.260Z,31.90
2018-11-20T05:05:42.019Z,30.07
2018-11-20T05:08:45.710Z,41.80
2018-11-20T05:11:22.077Z,45.30
2018-11-20T05:14:26.058Z,39.53
2018-11-20T05:17:17.652Z,37.27
2018-11-20T05:20:21.396Z,34.97
2018-11-20T05:23:08.992Z,36.63
2018-11-20T05:26:03.537Z,35.77
2018-11-20T05:28:50.480Z,58.73
2018-11-20T05:31:37.690Z,82.47
2018-11-20T05:34:29.152Z,59.23
2018-11-20T05:37:16.169Z,35.00
2018-11-20T05:40:03.343Z,31.60
2018-11-20T05:42:54.847Z,39.73
2018-11-20T05:45:43.440Z,37.90
2018-11-20T05:48:47.078Z,37.13
2018-11-20T05:51:50.900Z,45.73
2018-11-20T05:54:38.602Z,46.87
2018-11-20T05:57:26.452Z,68.37
2018-11-20T06:00:05.669Z,71.53
2018-11-20T06:02:52.850Z,50.83
2018-11-20T06:05:39.577Z,43.47
2018-11-20T06:08:40.040Z,46.50
2018-11-20T06:11:47.046Z,36.77
2018-11-20T06:14:44.930Z,35.73
2018-11-20T06:17:31.929Z,39.43
2018-11-20T06:20:09.187Z,41.33
2018-11-20T06:22:57.840Z,46.23
2018-11-20T06:25:52.653Z,42.07
2018-11-20T06:28:41.383Z,41.97
2018-11-20T06:31:28.492Z,40.27
2018-11-20T06:34:15.733Z,49.97
2018-11-20T06:37:10.164Z,51.13
2018-11-20T06:40:03.373Z,46.40
2018-11-20T06:42:57.813Z,44.07
2018-11-20T06:45:54.091Z,35.50
2018-11-20T06:48:59.324Z,38.03
2018-11-20T06:51:50.864Z,36.50
2018-11-20T06:54:38.306Z,41.63
2018-11-20T06:57:38.844Z,44.57
2018-11-20T07:00:39.862Z,73.13
2018-11-20T07:03:46.530Z,57.93
2018-11-20T07:06:44.122Z,66.80
2018-11-20T07:09:50.928Z,71.00
2018-11-20T07:12:54.689Z,63.80
2018-11-20T07:15:42.256Z,62.70
2018-11-20T07:18:30.349Z,53.60
2018-11-20T07:21:19.046Z,48.60
2018-11-20T07:24:04.269Z,54.03
2018-11-20T07:26:51.607Z,53.27
2018-11-20T07:29:38.985Z,47.53
2018-11-20T07:32:33.508Z,58.60
2018-11-20T07:35:31.362Z,46.07
2018-11-20T07:38:22.802Z,155.23
2018-11-20T07:41:09.921Z,231.17
2018-11-20T07:43:57.446Z,152.43
2018-11-20T07:46:44.402Z,332.33
2018-11-20T07:49:35.613Z,86.40
2018-11-20T07:52:23.006Z,181.47
2018-11-20T07:55:10.255Z,85.60
2018-11-20T07:57:57.542Z,42.20
2018-11-20T08:00:51.942Z,23.90
2018-11-20T08:03:43.017Z,17.77
2018-11-20T08:06:30.336Z,20.60
2018-11-20T08:09:27.756Z,22.53
2018-11-20T08:12:14.795Z,22.03
2018-11-20T08:15:01.971Z,18.37
2018-11-20T08:18:00.125Z,23.20
2018-11-20T08:20:44.876Z,27.37
2018-11-20T08:23:42.235Z,28.70
2018-11-20T08:26:33.619Z,25.37
2018-11-20T08:29:20.863Z,29.57
2018-11-20T08:32:19.286Z,32.43
2018-11-20T08:35:14.757Z,35.70
2018-11-20T08:38:09.133Z,32.23
2018-11-20T08:40:56.431Z,31.90
2018-11-20T08:43:43.583Z,41.80
2018-11-20T08:46:41.064Z,34.10
2018-11-20T08:49:45.011Z,35.50
2018-11-20T08:52:48.665Z,35.67
2018-11-20T08:55:35.834Z,23.60
2018-11-20T08:58:23.721Z,64.03
2018-11-20T09:01:10.951Z,49.00
2018-11-20T09:04:17.939Z,42.47
2018-11-20T09:07:12.198Z,30.47
2018-11-20T09:09:59.204Z,19.90
2018-11-20T09:12:46.520Z,43.93
2018-11-20T09:15:35.192Z,42.20
2018-11-20T09:18:22.251Z,33.80
2018-11-20T09:21:04.732Z,26.03
2018-11-20T09:23:50.094Z,27.10
2018-11-20T09:26:49.306Z,26.70
2018-11-20T09:29:40.715Z,44.27
2018-11-20T09:32:19.270Z,58.60
2018-11-20T09:35:11.041Z,54.43
2018-11-20T09:38:08.287Z,54.83
2018-11-20T09:41:12.993Z,43.93
2018-11-20T09:44:14.804Z,45.50
2018-11-20T09:47:21.394Z,47.77
2018-11-20T09:50:22.275Z,50.27
2018-11-20T09:53:09.842Z,43.37
2018-11-20T09:56:07.241Z,44.87
2018-11-20T09:59:11.074Z,38.60
2018-11-20T10:01:59.600Z,41.80
2018-11-20T10:04:46.387Z,39.20
2018-11-20T10:07:50.044Z,33.03
2018-11-20T10:10:47.265Z,31.77
2018-11-20T10:13:42.161Z,30.70
2018-11-20T10:16:35.140Z,45.87
2018-11-20T10:19:29.707Z,47.30
2018-11-20T10:22:27.283Z,31.53
2018-11-20T10:25:24.973Z,37.10
2018-11-20T10:28:28.788Z,36.40
2018-11-20T10:31:16.158Z,51.03
2018-11-20T10:34:19.977Z,50.70
2018-11-20T10:37:23.399Z,63.87
2018-11-20T10:40:07.130Z,36.73
2018-11-20T10:43:04.582Z,34.97
2018-11-20T10:46:40.619Z,33.33
2018-11-20T10:49:37.320Z,37.27
2018-11-20T10:52:25.227Z,38.33
2018-11-20T10:55:19.233Z,46.87
2018-11-20T10:58:05.696Z,61.73
2018-11-20T11:00:52.310Z,49.63
2018-11-20T11:03:38.991Z,40.30
2018-11-20T11:06:25.856Z,33.53
2018-11-20T11:09:12.319Z,36.53
2018-11-20T11:12:18.560Z,32.63
2018-11-20T11:15:18.603Z,30.20
2018-11-20T11:18:21.665Z,34.17
2018-11-20T11:21:07.276Z,37.33
2018-11-20T11:23:53.525Z,31.53
2018-11-20T11:26:47.426Z,33.07
2018-11-20T11:29:35.254Z,33.40
2018-11-20T11:32:31.875Z,38.33
2018-11-20T11:35:22.221Z,44.83
2018-11-20T11:38:22.023Z,60.13
2018-11-20T11:41:05.015Z,52.90
2018-11-20T11:43:52.793Z,54.53
2018-11-20T11:46:40.466Z,65.83
2018-11-20T11:49:46.340Z,50.10
2018-11-20T11:52:52.592Z,53.00
2018-11-20T11:55:39.225Z,46.13
2018-11-20T11:58:35.968Z,44.60
2018-11-20T12:01:23.271Z,54.27
2018-11-20T12:06:50.599Z,51.57
2018-11-20T12:09:38.187Z,47.23
2018-11-20T12:12:23.293Z,44.30
2018-11-20T12:15:08.799Z,41.57
2018-11-20T12:17:53.596Z,39.47
2018-11-20T12:20:33.733Z,45.73
2018-11-20T12:23:20.016Z,48.90
2018-11-20T12:26:06.813Z,53.73
2018-11-20T12:28:57.960Z,46.77
2018-11-20T12:31:45.540Z,54.90
2018-11-20T12:34:51.358Z,49.40
2018-11-20T12:37:37.838Z,52.77
2018-11-20T12:40:29.001Z,71.73
2018-11-20T12:43:35.663Z,55.83
2018-11-20T12:46:16.393Z,56.80
2018-11-20T12:49:07.408Z,56.67
2018-11-20T12:51:58.101Z,55.60
2018-11-20T12:54:44.517Z,67.77
2018-11-20T12:57:19.245Z,61.70
2018-11-20T13:00:12.734Z,127.47
2018-11-20T13:02:59.340Z,64.60
2018-11-20T13:05:59.372Z,61.07
2018-11-20T13:09:06.115Z,73.43
2018-11-20T13:11:53.895Z,57.63
2018-11-20T13:14:50.871Z,60.27
2018-11-20T13:17:33.637Z,56.17
2018-11-20T13:20:29.634Z,50.73
2018-11-20T13:23:16.954Z,58.03
2018-11-20T13:26:03.396Z,55.33
2018-11-20T13:28:51.110Z,53.47
2018-11-20T13:31:44.537Z,54.87
2018-11-20T13:34:44.182Z,60.97
2018-11-20T13:37:27.342Z,56.97
2018-11-20T13:40:23.989Z,56.00
2018-11-20T13:43:04.281Z,55.30
2018-11-20T13:45:43.743Z,64.27
2018-11-20T13:48:30.774Z,61.53
2018-11-20T13:51:08.959Z,72.30
2018-11-20T13:54:00.762Z,68.93
2018-11-20T13:56:52.606Z,63.90
2018-11-20T13:59:40.416Z,65.23
2018-11-20T14:02:26.798Z,61.97
2018-11-20T14:05:13.216Z,73.10
2018-11-20T14:08:19.477Z,81.13
2018-11-20T14:11:06.119Z,66.37
2018-11-20T14:13:46.669Z,76.87
2018-11-20T14:16:34.538Z,73.47
2018-11-20T14:19:21.124Z,77.10
2018-11-20T14:22:24.008Z,73.57
2018-11-20T14:25:06.458Z,87.93
2018-11-20T14:28:04.057Z,95.43
2018-11-20T14:31:01.016Z,87.13
2018-11-20T14:34:06.865Z,85.63
2018-11-20T14:36:58.015Z,75.50
2018-11-20T14:39:48.634Z,75.30
2018-11-20T14:42:39.368Z,72.33
2018-11-20T14:45:45.043Z,66.00
2018-11-20T14:48:31.416Z,63.83
2018-11-20T14:51:23.482Z,57.33
2018-11-20T14:54:09.667Z,75.90
2018-11-20T14:57:03.758Z,67.77
2018-11-20T14:59:50.649Z,70.60
2018-11-20T15:02:37.109Z,55.17
2018-11-20T15:05:37.434Z,70.43
2018-11-20T15:08:22.130Z,65.20
2018-11-20T15:11:25.416Z,130.63
2018-11-20T15:14:28.215Z,132.60
2018-11-20T15:17:16.700Z,147.03
2018-11-20T15:20:03.258Z,102.67
2018-11-20T15:22:53.823Z,82.07
2018-11-20T15:25:49.125Z,107.33
2018-11-20T15:28:37.012Z,146.83
2018-11-20T15:31:36.813Z,104.50
2018-11-20T15:34:33.856Z,81.03
2018-11-20T15:37:24.432Z,72.23
2018-11-20T15:40:10.887Z,74.87
2018-11-20T15:43:17.045Z,72.77
2018-11-20T15:46:04.905Z,92.17
2018-11-20T15:48:49.832Z,76.40
2018-11-20T15:51:43.793Z,83.50
2018-11-20T15:54:30.147Z,90.03
2018-11-20T15:57:35.823Z,97.90
2018-11-20T16:00:26.627Z,89.20
2018-11-20T16:03:29.753Z,97.00
2018-11-20T16:06:23.892Z,92.60
2018-11-20T16:09:11.605Z,90.57
2018-11-20T16:11:58.279Z,85.00
2018-11-20T16:14:44.461Z,88.40
2018-11-20T16:17:25.133Z,87.37
2018-11-20T16:20:25.163Z,123.40
2018-11-20T16:23:19.022Z,101.80
2018-11-20T16:26:06.854Z,83.37
2018-11-20T16:29:00.746Z,84.30
2018-11-20T16:31:47.398Z,77.67
2018-11-20T16:34:27.507Z,93.17
2018-11-20T16:37:17.978Z,83.90
2018-11-20T16:40:04.206Z,98.77
2018-11-20T16:42:52.038Z,107.53
2018-11-20T16:45:37.823Z,96.50
2018-11-20T16:48:25.747Z,112.93
2018-11-20T16:51:16.889Z,106.40
2018-11-20T16:54:19.716Z,101.93
2018-11-20T16:57:25.417Z,97.73
2018-11-20T17:00:12.071Z,102.47
2018-11-20T17:02:58.631Z,104.17
2018-11-20T17:05:52.356Z,107.00
2018-11-20T17:08:58.095Z,110.93
2018-11-20T17:11:48.861Z,114.77
2018-11-20T17:14:37.149Z,120.17
2018-11-20T17:17:23.363Z,117.23
2018-11-20T17:20:07.406Z,106.90
2018-11-20T17:23:08.333Z,118.23
2018-11-20T17:25:53.716Z,109.37
2018-11-20T17:28:36.058Z,124.90
2018-11-20T17:31:31.503Z,129.43
2018-11-20T17:34:18.043Z,125.67
2018-11-20T17:37:11.840Z,126.77
2018-11-20T17:39:59.720Z,155.30
2018-11-20T17:42:46.342Z,128.10
2018-11-20T17:45:32.033Z,118.00
2018-11-20T17:48:18.966Z,155.13
2018-11-20T17:51:21.978Z,132.17
2018-11-20T17:54:12.303Z,119.77
2018-11-20T17:57:04.489Z,122.60
2018-11-20T18:00:01.178Z,122.77
2018-11-20T18:02:58.178Z,125.60
2018-11-20T18:05:44.589Z,135.97
2018-11-20T18:08:25.468Z,142.07
2018-11-20T18:11:11.743Z,135.73
2018-11-20T18:13:53.385Z,130.33
2018-11-20T18:16:40.463Z,128.20
2018-11-20T18:19:27.131Z,122.80
2018-11-20T18:22:24.110Z,119.37
2018-11-20T18:25:18.018Z,123.53
2018-11-20T18:28:03.598Z,115.27
2018-11-20T18:31:06.760Z,127.97
2018-11-20T18:33:54.587Z,131.07
2018-11-20T18:36:54.877Z,120.70
2018-11-20T18:39:48.544Z,127.37
2018-11-20T18:42:38.411Z,111.27
2018-11-20T18:45:33.131Z,100.57
2018-11-20T18:48:26.549Z,109.03
2018-11-20T18:51:12.913Z,117.30
2018-11-20T18:54:03.117Z,112.17
2018-11-20T18:56:50.745Z,106.10
2018-11-20T18:59:44.099Z,96.00
2018-11-20T19:02:34.809Z,92.20
2018-11-20T19:05:22.760Z,93.33
2018-11-20T19:08:11.902Z,111.77
2018-11-20T19:10:59.797Z,114.33
2018-11-20T19:13:53.893Z,101.10
2018-11-20T19:16:36.444Z,99.67
2018-11-20T19:19:24.579Z,97.47
2018-11-20T19:22:10.993Z,102.80
2018-11-20T19:24:56.220Z,112.40
2018-11-20T19:27:44.621Z,100.57
2018-11-20T19:30:38.344Z,91.73
2018-11-20T19:33:30.911Z,84.67
2018-11-20T19:36:24.670Z,90.07
2018-11-20T19:39:11.557Z,82.20
2018-11-20T19:42:08.224Z,77.97
2018-11-20T19:44:58.962Z,70.97
2018-11-20T19:47:45.762Z,82.93
2018-11-20T19:50:36.559Z,81.17
2018-11-20T19:53:30.372Z,79.23
2018-11-20T19:56:16.914Z,76.70
2018-11-20T19:59:10.898Z,71.87
2018-11-20T20:01:57.272Z,70.80
2018-11-20T20:04:43.374Z,73.43
2018-11-20T20:07:37.089Z,73.70
2018-11-20T20:10:37.319Z,66.80
2018-11-20T20:13:28.737Z,100.00
2018-11-20T20:16:10.750Z,84.27
2018-11-20T20:18:57.127Z,71.77
2018-11-20T20:21:43.934Z,71.30
2018-11-20T20:24:30.488Z,55.17
2018-11-20T20:27:17.013Z,56.63
2018-11-20T20:30:03.804Z,53.67
2018-11-20T20:32:57.601Z,55.57
2018-11-20T20:35:48.042Z,66.27
2018-11-20T20:38:35.944Z,68.23
2018-11-20T20:41:26.895Z,65.37
2018-11-20T20:44:13.420Z,65.10
2018-11-20T20:47:00.299Z,60.10
2018-11-20T20:49:50.953Z,55.80
2018-11-20T20:52:37.587Z,53.87
2018-11-20T20:55:28.951Z,55.27
2018-11-20T20:58:19.426Z,54.07
2018-11-20T21:01:06.061Z,56.07
2018-11-20T21:03:52.823Z,56.63
2018-11-20T21:06:36.833Z,61.47
2018-11-20T21:09:26.818Z,55.80
2018-11-20T21:12:14.701Z,45.80
2018-11-20T21:15:08.296Z,48.17
2018-11-20T21:17:54.403Z,51.83
2018-11-20T21:20:41.075Z,53.27
2018-11-20T21:23:21.220Z,51.67
2018-11-20T21:26:11.896Z,56.23
2018-11-20T21:29:17.533Z,61.50
2018-11-20T21:32:03.773Z,64.43
2018-11-20T21:34:55.135Z,71.53
2018-11-20T21:37:36.713Z,64.43
2018-11-20T21:40:40.305Z,76.67
2018-11-20T21:43:37.017Z,74.07
2018-11-20T21:46:23.626Z,68.27
2018-11-20T21:49:17.565Z,74.73
2018-11-20T21:52:14.305Z,67.53
2018-11-20T21:55:04.588Z,71.33
2018-11-20T21:57:49.037Z,73.47
2018-11-20T22:00:50.542Z,76.97
2018-11-20T22:03:37.177Z,81.00
2018-11-20T22:06:24.020Z,87.60
2018-11-20T22:09:24.161Z,73.83
2018-11-20T22:12:14.809Z,72.57
2018-11-20T22:14:56.642Z,68.23
2018-11-20T22:17:50.460Z,67.87
2018-11-20T22:20:50.003Z,66.33
2018-11-20T22:23:43.773Z,72.70
2018-11-20T22:26:22.967Z,70.97
2018-11-20T22:29:19.841Z,65.97
2018-11-20T22:32:06.412Z,74.73
2018-11-20T22:34:54.991Z,68.00
2018-11-20T22:37:45.482Z,67.07
2018-11-20T22:40:42.395Z,63.03
2018-11-20T22:43:31.242Z,69.47
2018-11-20T22:46:36.978Z,71.30
2018-11-20T22:49:40.338Z,70.70
2018-11-20T22:52:19.718Z,70.10
2018-11-20T22:55:10.441Z,72.87
2018-11-20T22:58:08.960Z,66.43
2018-11-20T23:01:03.969Z,66.80
2018-11-20T23:03:45.151Z,60.57
2018-11-20T23:06:31.668Z,58.00
2018-11-20T23:09:00.542Z,55.00
2018-11-20T23:11:29.277Z,51.30
2018-11-20T23:13:57.969Z,53.87
2018-11-20T23:16:26.803Z,58.57
2018-11-20T23:18:55.550Z,61.80
2018-11-20T23:21:24.452Z,62.43
2018-11-20T23:23:53.252Z,62.17
2018-11-20T23:26:22.112Z,87.50
2018-11-20T23:28:50.956Z,85.80
2018-11-20T23:31:19.833Z,78.17
2018-11-20T23:33:48.772Z,74.03
2018-11-20T23:36:17.501Z,71.30
2018-11-20T23:38:46.395Z,74.77
2018-11-20T23:41:15.082Z,74.13
2018-11-20T23:43:43.879Z,72.27
2018-11-20T23:46:12.687Z,69.07
2018-11-20T23:48:41.592Z,71.07
2018-11-20T23:51:10.450Z,69.37
2018-11-20T23:53:39.332Z,66.63
2018-11-20T23:56:08.127Z,62.27
2018-11-20T23:58:36.999Z,74.33
